createdAt,value
2023-03-11T00:00:44.346Z,2.20
2023-03-11T00:03:14.631Z,1.90
2023-03-11T00:05:44.713Z,2.10
2023-03-11T00:08:17.602Z,1.70
2023-03-11T00:10:46.798Z,1.90
2023-03-11T00:13:16.778Z,2.40
2023-03-11T00:15:49.463Z,1.60
2023-03-11T00:18:17.459Z,1.90
2023-03-11T00:20:46.560Z,3.60
2023-03-11T00:23:15.436Z,3.10
2023-03-11T00:25:44.877Z,2.60
2023-03-11T00:28:12.571Z,2.00
2023-03-11T00:30:41.731Z,1.70
2023-03-11T00:33:11.611Z,2.30
2023-03-11T00:35:40.584Z,1.80
2023-03-11T00:38:12.998Z,2.40
2023-03-11T00:40:40.052Z,2.20
2023-03-11T00:43:06.693Z,1.70
2023-03-11T00:45:36.496Z,1.30
2023-03-11T00:48:04.909Z,1.90
2023-03-11T00:50:35.743Z,1.10
2023-03-11T00:53:03.184Z,2.80
2023-03-11T00:55:33.908Z,1.40
2023-03-11T00:58:05.735Z,2.40
2023-03-11T01:00:40.735Z,2.20
2023-03-11T01:03:07.574Z,2.80
2023-03-11T01:05:35.063Z,1.10
2023-03-11T01:08:03.870Z,1.70
2023-03-11T01:10:32.285Z,2.30
2023-03-11T01:12:59.127Z,2.70
2023-03-11T01:15:36.048Z,2.10
2023-03-11T01:18:04.895Z,2.80
2023-03-11T01:20:33.437Z,1.70
2023-03-11T01:23:00.067Z,1.80
2023-03-11T01:25:28.656Z,2.90
2023-03-11T01:27:58.520Z,1.90
2023-03-11T01:30:27.199Z,2.60
2023-03-11T01:32:56.755Z,3.70
2023-03-11T01:35:26.328Z,2.20
2023-03-11T01:37:54.082Z,0.70
2023-03-11T01:40:29.507Z,1.90
2023-03-11T01:42:59.364Z,1.80
2023-03-11T01:45:35.538Z,2.70
2023-03-11T01:48:03.313Z,2.40
2023-03-11T01:50:38.946Z,1.70
2023-03-11T01:53:06.249Z,1.60
2023-03-11T01:55:33.945Z,1.40
2023-03-11T01:58:06.596Z,1.90
2023-03-11T02:00:35.986Z,2.50
2023-03-11T02:03:10.145Z,4.80
2023-03-11T02:05:37.644Z,2.60
2023-03-11T02:08:04.564Z,1.90
2023-03-11T02:10:32.903Z,2.40
2023-03-11T02:13:00.646Z,2.30
2023-03-11T02:15:28.130Z,1.70
2023-03-11T02:17:57.065Z,3.30
2023-03-11T02:20:41.318Z,2.30
2023-03-11T02:23:14.596Z,2.20
2023-03-11T02:26:16.210Z,2.40
2023-03-11T02:28:46.357Z,1.20
2023-03-11T02:31:14.072Z,2.40
2023-03-11T02:33:43.124Z,1.50
2023-03-11T02:36:38.572Z,1.70
2023-03-11T02:39:07.916Z,2.30
2023-03-11T02:41:44.339Z,1.50
2023-03-11T02:44:14.335Z,2.20
2023-03-11T02:46:42.920Z,2.70
2023-03-11T02:49:10.335Z,1.40
2023-03-11T02:51:36.896Z,2.70
2023-03-11T02:54:06.338Z,1.90
2023-03-11T02:56:33.229Z,1.70
2023-03-11T02:58:59.873Z,1.40
2023-03-11T03:01:28.618Z,2.10
2023-03-11T03:03:55.482Z,3.00
2023-03-11T03:06:22.235Z,2.40
2023-03-11T03:08:49.596Z,1.70
2023-03-11T03:11:16.425Z,2.70
2023-03-11T03:13:43.147Z,2.80
2023-03-11T03:16:09.749Z,2.00
2023-03-11T03:18:36.769Z,2.00
2023-03-11T03:21:04.041Z,2.90
2023-03-11T03:23:35.170Z,2.20
2023-03-11T03:26:02.423Z,2.30
2023-03-11T03:28:29.538Z,3.30
2023-03-11T03:30:56.176Z,1.50
2023-03-11T03:33:22.778Z,2.90
2023-03-11T03:35:49.431Z,3.50
2023-03-11T03:38:23.189Z,1.80
2023-03-11T03:40:50.465Z,1.40
2023-03-11T03:43:19.633Z,1.50
2023-03-11T03:45:46.373Z,2.80
2023-03-11T03:48:13.033Z,1.80
2023-03-11T03:50:42.566Z,1.90
2023-03-11T03:53:09.870Z,1.80
2023-03-11T03:55:36.452Z,2.40
2023-03-11T03:58:03.214Z,2.40
2023-03-11T04:00:32.775Z,2.70
2023-03-11T04:02:59.605Z,2.30
2023-03-11T04:05:33.884Z,1.60
2023-03-11T04:08:00.767Z,0.90
2023-03-11T04:10:28.241Z,3.10
2023-03-11T04:12:55.214Z,1.20
2023-03-11T04:15:22.084Z,2.70
2023-03-11T04:17:48.800Z,1.60
2023-03-11T04:20:15.612Z,1.40
2023-03-11T04:22:44.907Z,2.30
2023-03-11T04:25:11.564Z,2.50
2023-03-11T04:27:38.602Z,2.00
2023-03-11T04:30:06.496Z,1.50
2023-03-11T04:32:33.628Z,2.20
2023-03-11T04:35:00.440Z,3.10
2023-03-11T04:37:29.208Z,1.60
2023-03-11T04:39:56.098Z,1.80
2023-03-11T04:42:22.761Z,2.30
2023-03-11T04:44:49.530Z,2.20
2023-03-11T04:47:16.625Z,1.90
2023-03-11T04:49:43.799Z,1.70
2023-03-11T04:52:10.840Z,2.20
2023-03-11T04:54:37.763Z,2.90
2023-03-11T04:57:05.247Z,2.20
2023-03-11T04:59:32.465Z,1.70
2023-03-11T05:01:59.729Z,3.40
2023-03-11T05:04:26.363Z,3.00
2023-03-11T05:06:53.176Z,1.70
2023-03-11T05:09:20.488Z,2.40
2023-03-11T05:11:47.119Z,2.80
2023-03-11T05:14:14.500Z,2.00
2023-03-11T05:16:41.455Z,2.20
2023-03-11T05:19:28.023Z,3.60
2023-03-11T05:21:55.199Z,1.40
2023-03-11T05:24:22.873Z,2.40
2023-03-11T05:26:49.489Z,2.50
2023-03-11T05:29:16.261Z,3.80
2023-03-11T05:31:43.514Z,2.90
2023-03-11T05:34:10.474Z,4.10
2023-03-11T05:36:37.141Z,3.40
2023-03-11T05:39:04.168Z,2.90
2023-03-11T05:41:31.377Z,3.20
2023-03-11T05:43:58.175Z,2.10
2023-03-11T05:46:25.863Z,3.40
2023-03-11T05:48:52.602Z,2.60
2023-03-11T05:51:19.326Z,2.20
2023-03-11T05:53:48.742Z,2.40
2023-03-11T05:56:21.594Z,1.10
2023-03-11T05:58:48.963Z,1.90
2023-03-11T06:01:18.766Z,2.90
2023-03-11T06:03:45.623Z,3.40
2023-03-11T06:06:14.384Z,2.40
2023-03-11T06:08:46.172Z,4.90
2023-03-11T06:11:13.085Z,2.60
2023-03-11T06:13:40.306Z,2.10
2023-03-11T06:16:10.104Z,2.70
2023-03-11T06:18:37.043Z,3.50
2023-03-11T06:21:04.719Z,3.60
2023-03-11T06:23:32.186Z,2.10
2023-03-11T06:26:05.870Z,3.20
2023-03-11T06:28:36.859Z,3.10
2023-03-11T06:31:12.860Z,3.80
2023-03-11T06:33:39.500Z,3.10
2023-03-11T06:36:07.406Z,2.80
2023-03-11T06:38:37.274Z,3.20
2023-03-11T06:41:06.522Z,2.90
2023-03-11T06:43:35.540Z,3.60
2023-03-11T06:46:10.338Z,4.10
2023-03-11T06:48:38.023Z,2.50
2023-03-11T06:51:06.016Z,3.90
2023-03-11T06:53:33.540Z,3.80
2023-03-11T06:56:07.998Z,2.10
2023-03-11T06:58:41.885Z,3.20
2023-03-11T07:01:14.641Z,3.30
2023-03-11T07:03:42.113Z,2.00
2023-03-11T07:06:18.312Z,2.70
2023-03-11T07:08:51.146Z,2.80
2023-03-11T07:11:27.369Z,3.00
2023-03-11T07:13:58.718Z,3.70
2023-03-11T07:16:29.816Z,3.80
2023-03-11T07:19:03.444Z,2.70
2023-03-11T07:21:32.377Z,3.10
2023-03-11T07:24:02.268Z,3.80
2023-03-11T07:26:30.713Z,3.60
2023-03-11T07:28:58.548Z,2.00
2023-03-11T07:31:33.296Z,2.30
2023-03-11T07:34:05.773Z,2.80
2023-03-11T07:36:32.593Z,3.20
2023-03-11T07:39:04.653Z,2.80
2023-03-11T07:41:34.348Z,2.90
2023-03-11T07:44:02.918Z,3.00
2023-03-11T07:46:31.211Z,4.90
2023-03-11T07:48:57.869Z,3.50
2023-03-11T07:51:29.116Z,3.10
2023-03-11T07:53:58.621Z,3.80
2023-03-11T07:56:29.982Z,3.00
2023-03-11T07:58:59.417Z,3.80
2023-03-11T08:01:36.440Z,3.40
2023-03-11T08:04:06.058Z,4.00
2023-03-11T08:06:34.685Z,5.20
2023-03-11T08:09:04.853Z,4.30
2023-03-11T08:11:31.947Z,4.80
2023-03-11T08:13:59.710Z,3.60
2023-03-11T08:16:26.914Z,3.10
2023-03-11T08:18:54.422Z,2.80
2023-03-11T08:21:29.215Z,3.50
2023-03-11T08:24:01.395Z,3.50
2023-03-11T08:26:29.457Z,3.30
2023-03-11T08:28:58.876Z,2.70
2023-03-11T08:31:30.148Z,3.50
2023-03-11T08:34:03.757Z,2.70
2023-03-11T08:36:31.938Z,3.20
2023-03-11T08:38:59.352Z,3.10
2023-03-11T08:41:26.683Z,2.10
2023-03-11T08:43:53.893Z,2.70
2023-03-11T08:46:36.610Z,4.60
2023-03-11T08:49:04.656Z,2.90
2023-03-11T08:51:34.069Z,4.20
2023-03-11T08:54:02.145Z,3.90
2023-03-11T08:56:29.060Z,3.70
2023-03-11T08:58:55.704Z,4.00
2023-03-11T09:01:23.912Z,1.70
2023-03-11T09:03:50.697Z,3.70
2023-03-11T09:06:18.138Z,3.80
2023-03-11T09:08:46.488Z,3.90
2023-03-11T09:11:13.872Z,2.50
2023-03-11T09:13:43.331Z,2.80
2023-03-11T09:16:18.143Z,3.70
2023-03-11T09:18:45.258Z,3.20
2023-03-11T09:21:12.235Z,3.40
2023-03-11T09:23:40.709Z,5.40
2023-03-11T09:26:08.781Z,2.20
2023-03-11T09:28:35.371Z,4.80
2023-03-11T09:31:01.998Z,4.10
2023-03-11T09:33:28.749Z,4.90
2023-03-11T09:35:55.428Z,4.00
2023-03-11T09:38:22.139Z,3.30
2023-03-11T09:40:56.645Z,2.50
2023-03-11T09:43:39.155Z,2.60
2023-03-11T09:47:05.089Z,2.90
2023-03-11T09:50:00.835Z,2.70
2023-03-11T09:52:33.269Z,3.80
2023-03-11T09:55:03.989Z,4.20
2023-03-11T09:57:36.946Z,2.70
2023-03-11T10:00:07.157Z,7.80
2023-03-11T10:02:40.658Z,4.30
2023-03-11T10:05:20.738Z,3.30
2023-03-11T10:07:59.343Z,3.10
2023-03-11T10:10:31.653Z,2.70
2023-03-11T10:13:19.121Z,3.30
2023-03-11T10:16:27.715Z,3.80
2023-03-11T10:19:29.051Z,3.00
2023-03-11T10:22:45.687Z,2.50
2023-03-11T10:25:25.949Z,1.70
2023-03-11T10:28:03.769Z,2.80
2023-03-11T10:30:58.468Z,3.20
2023-03-11T10:33:36.729Z,3.00
2023-03-11T10:36:11.688Z,4.00
2023-03-11T10:38:49.275Z,2.50
2023-03-11T10:41:44.340Z,2.10
2023-03-11T10:44:39.499Z,1.90
2023-03-11T10:47:12.916Z,1.70
2023-03-11T10:49:39.496Z,3.00
2023-03-11T10:52:06.603Z,1.50
2023-03-11T10:54:46.442Z,2.80
2023-03-11T10:57:25.631Z,3.50
2023-03-11T10:59:56.259Z,4.10
2023-03-11T11:02:43.817Z,1.40
2023-03-11T11:05:22.738Z,1.60
2023-03-11T11:08:02.965Z,2.10
2023-03-11T11:10:30.824Z,2.70
2023-03-11T11:13:12.960Z,2.80
2023-03-11T11:15:51.166Z,2.80
2023-03-11T11:18:32.468Z,1.80
2023-03-11T11:21:09.107Z,2.20
2023-03-11T11:23:47.848Z,1.80
2023-03-11T11:26:26.244Z,3.60
2023-03-11T11:29:15.521Z,2.50
2023-03-11T11:31:45.493Z,3.00
2023-03-11T11:34:35.169Z,2.90
2023-03-11T11:37:05.760Z,3.70
2023-03-11T11:39:45.823Z,1.60
2023-03-11T11:42:15.013Z,2.90
2023-03-11T11:44:47.260Z,2.80
2023-03-11T11:47:28.569Z,3.40
2023-03-11T11:50:00.620Z,2.40
2023-03-11T11:52:40.746Z,2.70
2023-03-11T11:55:21.112Z,3.00
2023-03-11T11:57:48.788Z,2.40
2023-03-11T12:00:45.348Z,1.30
2023-03-11T12:03:48.652Z,5.30
2023-03-11T12:06:46.379Z,2.90
2023-03-11T12:09:43.105Z,4.00
2023-03-11T12:12:54.002Z,2.40
2023-03-11T12:15:34.370Z,1.90
2023-03-11T12:18:08.862Z,2.70
2023-03-11T12:20:49.773Z,2.60
2023-03-11T12:23:23.973Z,3.90
2023-03-11T12:26:15.013Z,3.30
2023-03-11T12:28:56.916Z,2.40
2023-03-11T12:31:27.697Z,2.50
2023-03-11T12:34:07.261Z,1.90
2023-03-11T12:36:41.574Z,1.90
2023-03-11T12:39:29.867Z,2.90
2023-03-11T12:42:21.573Z,3.00
2023-03-11T12:44:50.259Z,3.30
2023-03-11T12:47:28.910Z,2.40
2023-03-11T12:50:35.262Z,2.80
2023-03-11T12:53:01.800Z,3.60
2023-03-11T12:55:34.748Z,1.60
2023-03-11T12:58:23.875Z,2.10
2023-03-11T13:01:14.189Z,3.50
2023-03-11T13:04:15.758Z,1.90
2023-03-11T13:07:08.700Z,2.00
2023-03-11T13:09:35.344Z,3.60
2023-03-11T13:12:02.394Z,2.30
2023-03-11T13:14:35.940Z,3.90
2023-03-11T13:17:26.827Z,3.70
2023-03-11T13:19:58.394Z,3.50
2023-03-11T13:22:54.006Z,2.40
2023-03-11T13:25:37.801Z,2.50
2023-03-11T13:28:42.040Z,2.20
2023-03-11T13:31:56.011Z,3.40
2023-03-11T13:35:00.865Z,1.80
2023-03-11T13:37:44.416Z,2.00
2023-03-11T13:40:40.672Z,3.60
2023-03-11T13:43:25.415Z,2.80
2023-03-11T13:46:02.554Z,1.50
2023-03-11T13:48:40.575Z,3.90
2023-03-11T13:51:25.697Z,2.00
2023-03-11T13:54:00.445Z,4.10
2023-03-11T13:56:31.856Z,4.10
2023-03-11T13:59:24.713Z,2.00
2023-03-11T14:02:01.110Z,5.30
2023-03-11T14:04:35.340Z,3.40
2023-03-11T14:07:27.694Z,3.50
2023-03-11T14:10:25.485Z,3.30
2023-03-11T14:13:05.438Z,3.90
2023-03-11T14:15:45.712Z,2.50
2023-03-11T14:18:34.475Z,2.00
2023-03-11T14:21:02.877Z,2.30
2023-03-11T14:23:43.560Z,3.10
2023-03-11T14:26:19.493Z,3.50
2023-03-11T14:28:51.246Z,2.90
2023-03-11T14:31:34.236Z,2.30
2023-03-11T14:34:11.101Z,1.90
2023-03-11T14:36:44.296Z,1.90
2023-03-11T14:39:33.860Z,3.90
2023-03-11T14:42:26.757Z,4.30
2023-03-11T14:45:15.432Z,3.30
2023-03-11T14:47:46.164Z,3.00
2023-03-11T14:50:21.151Z,3.60
2023-03-11T14:53:07.498Z,5.30
2023-03-11T14:55:44.233Z,2.90
2023-03-11T14:58:26.076Z,4.10
2023-03-11T15:01:13.457Z,2.20
2023-03-11T15:03:52.518Z,3.30
2023-03-11T15:06:30.130Z,2.60
2023-03-11T15:09:06.702Z,4.50
2023-03-11T15:11:59.309Z,3.50
2023-03-11T15:14:37.235Z,3.50
2023-03-11T15:17:33.988Z,2.90
2023-03-11T15:20:07.516Z,3.90
2023-03-11T15:22:41.151Z,3.40
2023-03-11T15:25:19.398Z,3.70
2023-03-11T15:27:46.737Z,4.20
2023-03-11T15:30:26.046Z,3.20
2023-03-11T15:32:53.379Z,3.20
2023-03-11T15:35:24.522Z,3.70
2023-03-11T15:38:20.812Z,4.20
2023-03-11T15:41:03.920Z,3.30
2023-03-11T15:43:43.833Z,4.60
2023-03-11T15:46:11.107Z,3.60
2023-03-11T15:48:37.810Z,6.00
2023-03-11T15:51:04.650Z,4.90
2023-03-11T15:53:31.548Z,5.20
2023-03-11T15:56:12.185Z,4.00
2023-03-11T15:58:38.910Z,2.70
2023-03-11T16:01:05.710Z,3.90
2023-03-11T16:03:32.547Z,3.70
2023-03-11T16:05:59.177Z,7.90
2023-03-11T16:08:25.821Z,5.00
2023-03-11T16:10:52.453Z,3.80
2023-03-11T16:13:19.185Z,6.70
2023-03-11T16:15:47.085Z,4.50
2023-03-11T16:18:13.840Z,4.90
2023-03-11T16:20:52.452Z,3.70
2023-03-11T16:23:27.610Z,4.30
2023-03-11T16:26:00.000Z,3.50
2023-03-11T16:28:27.116Z,4.20
2023-03-11T16:30:53.969Z,3.20
2023-03-11T16:33:20.650Z,4.30
2023-03-11T16:35:47.497Z,3.60
2023-03-11T16:38:14.409Z,5.60
2023-03-11T16:40:41.062Z,3.80
2023-03-11T16:43:12.629Z,6.00
2023-03-11T16:45:39.713Z,5.20
2023-03-11T16:48:07.201Z,5.90
2023-03-11T16:50:36.874Z,4.90
2023-03-11T16:53:05.033Z,4.20
2023-03-11T16:55:31.844Z,4.90
2023-03-11T16:57:58.717Z,6.00
2023-03-11T17:00:25.531Z,4.00
2023-03-11T17:02:52.454Z,3.30
2023-03-11T17:05:19.388Z,3.30
2023-03-11T17:07:46.141Z,3.70
2023-03-11T17:10:13.126Z,5.20
2023-03-11T17:12:39.809Z,4.50
2023-03-11T17:15:08.516Z,4.00
2023-03-11T17:17:35.749Z,4.90
2023-03-11T17:20:02.734Z,3.90
2023-03-11T17:22:29.269Z,3.80
2023-03-11T17:24:55.932Z,2.80
2023-03-11T17:27:22.524Z,3.50
2023-03-11T17:29:50.375Z,4.20
2023-03-11T17:32:17.644Z,6.00
2023-03-11T17:34:44.434Z,4.00
2023-03-11T17:37:11.040Z,3.10
2023-03-11T17:39:37.645Z,4.50
2023-03-11T17:42:04.503Z,4.30
2023-03-11T17:44:44.623Z,3.10
2023-03-11T17:47:19.842Z,4.40
2023-03-11T17:49:48.407Z,5.00
2023-03-11T17:52:14.974Z,4.60
2023-03-11T17:54:41.571Z,5.20
2023-03-11T17:57:08.394Z,4.70
2023-03-11T17:59:35.112Z,3.80
2023-03-11T18:02:02.094Z,3.90
2023-03-11T18:04:28.942Z,4.50
2023-03-11T18:06:56.225Z,6.90
2023-03-11T18:09:22.958Z,5.60
2023-03-11T18:11:49.845Z,7.70
2023-03-11T18:14:16.900Z,4.40
2023-03-11T18:16:43.587Z,3.70
2023-03-11T18:19:10.371Z,6.00
2023-03-11T18:21:37.051Z,4.60
2023-03-11T18:24:03.831Z,5.80
2023-03-11T18:26:31.310Z,4.00
2023-03-11T18:28:59.913Z,5.00
2023-03-11T18:31:28.827Z,4.50
2023-03-11T18:33:59.605Z,5.90
2023-03-11T18:36:38.052Z,5.40
2023-03-11T18:39:05.359Z,3.60
2023-03-11T18:41:35.368Z,5.40
2023-03-11T18:44:02.478Z,4.40
2023-03-11T18:46:31.982Z,5.20
2023-03-11T18:49:02.016Z,4.50
2023-03-11T18:51:31.988Z,4.50
2023-03-11T18:54:00.124Z,4.50
2023-03-11T18:56:27.078Z,4.10
2023-03-11T18:58:55.458Z,4.00
2023-03-11T19:01:22.339Z,4.80
2023-03-11T19:03:55.710Z,4.30
2023-03-11T19:06:25.519Z,5.50
2023-03-11T19:08:53.199Z,5.70
2023-03-11T19:11:22.967Z,3.90
2023-03-11T19:13:50.088Z,4.70
2023-03-11T19:16:21.090Z,3.30
2023-03-11T19:18:47.979Z,5.10
2023-03-11T19:21:16.300Z,7.10
2023-03-11T19:23:44.148Z,4.50
2023-03-11T19:26:10.777Z,6.10
2023-03-11T19:28:37.702Z,4.90
2023-03-11T19:31:05.803Z,5.30
2023-03-11T19:33:32.752Z,4.60
2023-03-11T19:36:05.993Z,4.40
2023-03-11T19:38:33.381Z,6.20
2023-03-11T19:41:08.077Z,5.50
2023-03-11T19:43:35.829Z,7.00
2023-03-11T19:46:08.201Z,5.80
2023-03-11T19:48:35.116Z,7.30
2023-03-11T19:51:02.638Z,5.60
2023-03-11T19:53:29.743Z,5.90
2023-03-11T19:55:57.291Z,5.30
2023-03-11T19:58:29.949Z,7.10
2023-03-11T20:00:58.218Z,5.60
2023-03-11T20:03:26.147Z,4.70
2023-03-11T20:05:56.544Z,5.40
2023-03-11T20:08:25.531Z,8.10
2023-03-11T20:10:53.862Z,4.80
2023-03-11T20:13:22.185Z,6.00
2023-03-11T20:15:49.756Z,5.80
2023-03-11T20:18:17.897Z,4.80
2023-03-11T20:20:45.751Z,5.00
2023-03-11T20:23:13.186Z,3.90
2023-03-11T20:25:41.423Z,5.10
2023-03-11T20:28:10.237Z,5.70
2023-03-11T20:30:39.427Z,5.80
2023-03-11T20:33:07.799Z,5.00
2023-03-11T20:35:35.396Z,5.30
2023-03-11T20:38:03.220Z,5.40
2023-03-11T20:40:30.033Z,5.30
2023-03-11T20:42:56.674Z,6.80
2023-03-11T20:45:23.464Z,5.10
2023-03-11T20:47:53.843Z,4.90
2023-03-11T20:50:22.356Z,5.50
2023-03-11T20:52:50.873Z,6.00
2023-03-11T20:55:18.087Z,6.30
2023-03-11T20:57:44.699Z,5.90
2023-03-11T21:00:13.244Z,6.40
2023-03-11T21:02:42.845Z,6.20
2023-03-11T21:05:11.356Z,6.60
2023-03-11T21:07:38.279Z,8.70
2023-03-11T21:10:09.329Z,6.90
2023-03-11T21:12:36.048Z,5.60
2023-03-11T21:15:03.945Z,6.20
2023-03-11T21:17:31.010Z,6.10
2023-03-11T21:19:57.686Z,7.30
2023-03-11T21:22:24.516Z,7.60
2023-03-11T21:24:53.048Z,5.80
2023-03-11T21:27:25.833Z,7.00
2023-03-11T21:29:57.245Z,5.00
2023-03-11T21:32:25.814Z,6.20
2023-03-11T21:35:00.944Z,4.80
2023-03-11T21:37:28.624Z,5.60
2023-03-11T21:39:55.646Z,6.30
2023-03-11T21:42:22.457Z,6.20
2023-03-11T21:44:51.316Z,8.00
2023-03-11T21:47:18.481Z,5.80
2023-03-11T21:49:45.257Z,6.80
2023-03-11T21:52:11.908Z,6.20
2023-03-11T21:54:38.778Z,6.40
2023-03-11T21:57:05.540Z,5.80
2023-03-11T21:59:32.302Z,6.00
2023-03-11T22:02:02.936Z,6.30
2023-03-11T22:04:31.561Z,5.80
2023-03-11T22:06:59.806Z,6.20
2023-03-11T22:09:27.230Z,6.80
2023-03-11T22:11:56.748Z,6.20
2023-03-11T22:14:24.682Z,8.70
2023-03-11T22:16:52.169Z,6.20
2023-03-11T22:19:19.243Z,7.60
2023-03-11T22:21:46.063Z,6.50
2023-03-11T22:24:12.794Z,5.40
2023-03-11T22:26:39.451Z,6.20
2023-03-11T22:29:08.561Z,8.10
2023-03-11T22:31:35.920Z,5.80
2023-03-11T22:34:02.686Z,6.00
2023-03-11T22:36:29.314Z,6.00
2023-03-11T22:38:56.931Z,8.00
2023-03-11T22:41:23.579Z,7.60
2023-03-11T22:43:50.232Z,5.60
2023-03-11T22:46:16.864Z,6.40
2023-03-11T22:48:43.560Z,4.60
2023-03-11T22:51:10.312Z,6.10
2023-03-11T22:53:37.018Z,6.90
2023-03-11T22:56:13.245Z,7.20
2023-03-11T22:58:40.056Z,6.80
2023-03-11T23:01:07.246Z,6.10
2023-03-11T23:03:35.503Z,6.70
2023-03-11T23:06:06.343Z,5.40
2023-03-11T23:08:33.234Z,5.80
2023-03-11T23:11:05.834Z,7.60
2023-03-11T23:13:35.972Z,6.60
2023-03-11T23:16:10.344Z,8.60
2023-03-11T23:18:37.808Z,6.30
2023-03-11T23:21:04.877Z,6.70
2023-03-11T23:23:31.534Z,6.70
2023-03-11T23:25:58.297Z,21.90
2023-03-11T23:28:24.879Z,7.10
2023-03-11T23:30:51.570Z,6.20
2023-03-11T23:33:18.229Z,8.50
2023-03-11T23:35:44.915Z,7.70
2023-03-11T23:38:11.576Z,6.80
2023-03-11T23:40:41.551Z,7.40
2023-03-11T23:43:08.166Z,8.30
2023-03-11T23:45:34.810Z,6.20
2023-03-11T23:48:01.548Z,8.60
2023-03-11T23:50:28.268Z,7.30
2023-03-11T23:52:54.936Z,9.00
2023-03-11T23:55:21.475Z,6.80
2023-03-11T23:57:48.084Z,7.90
